Time;durP1;ratioP1;P1;durP2;ratioP2;P2;SDS_P1;SDS_P2;PMS_P1;PMS_P2;Temp;Humidity;BMP_temperature;BMP_pressure;BME280_temperature;BME280_humidity;BME280_pressure;Samples;Min_cycle;Max_cycle;Signal;HPM_P1;HPM_P2
2022/10/11 00:02:22;;;;;;;4.75;1.95;;;;;;;14.02;62.77;101372.94;5094129;28;20178;-30
2022/10/11 00:04:49;;;;;;;6.15;1.80;;;;;;;14.01;62.62;101373.84;5099910;28;20031;-30
2022/10/11 00:07:16;;;;;;;5.47;1.80;;;;;;;14.00;62.22;101380.91;5106279;28;20051;-29
2022/10/11 00:09:41;;;;;;;5.60;1.63;;;;;;;13.97;62.27;101387.13;5106749;28;20390;-29
2022/10/11 00:12:07;;;;;;;6.07;1.60;;;;;;;13.97;62.02;101391.56;5104431;28;20034;-29
2022/10/11 00:14:32;;;;;;;4.43;1.80;;;;;;;13.95;61.95;101390.72;5095902;28;20499;-30
2022/10/11 00:16:58;;;;;;;8.38;1.88;;;;;;;13.92;61.93;101391.63;5094582;28;20047;-30
2022/10/11 00:19:23;;;;;;;5.97;1.92;;;;;;;13.91;61.65;101395.16;5105103;28;20039;-29
2022/10/11 00:21:49;;;;;;;2.57;1.50;;;;;;;13.88;61.57;101397.88;5110332;28;20471;-30
2022/10/11 00:24:15;;;;;;;5.00;1.70;;;;;;;13.88;61.45;101394.31;5107751;28;20366;-30
2022/10/11 00:26:41;;;;;;;5.93;1.90;;;;;;;13.84;61.71;101398.81;5100481;28;20482;-30
2022/10/11 00:29:06;;;;;;;3.03;1.33;;;;;;;13.81;61.55;101404.13;5088697;28;20078;-30
2022/10/11 00:31:31;;;;;;;5.38;1.40;;;;;;;13.78;61.58;101410.34;5109408;28;20074;-30
2022/10/11 00:33:57;;;;;;;4.47;1.60;;;;;;;13.78;61.49;101404.16;5104106;28;20084;-29
2022/10/11 00:36:22;;;;;;;4.40;1.80;;;;;;;13.75;61.22;101409.47;5099309;28;20057;-30
2022/10/11 00:38:47;;;;;;;5.72;1.60;;;;;;;13.73;61.34;101418.34;5103423;28;20024;-30
2022/10/11 00:41:13;;;;;;;6.85;1.80;;;;;;;13.69;61.35;101411.31;5110889;28;20024;-30
2022/10/11 00:43:39;;;;;;;6.32;1.70;;;;;;;13.68;61.06;101421.94;5111551;28;20023;-30
2022/10/11 00:46:06;;;;;;;5.18;1.63;;;;;;;13.65;60.94;101420.19;5112345;28;20019;-29
2022/10/11 00:48:52;;;;;;;4.97;2.05;;;;;;;13.62;60.95;101414.91;5086285;28;20031;-30
2022/10/11 00:51:50;;;;;;;3.85;1.50;;;;;;;13.59;60.99;101421.13;5084377;28;20027;-30
2022/10/11 00:54:18;;;;;;;5.18;2.03;;;;;;;13.56;60.93;101417.63;5107782;28;20016;-30
2022/10/11 00:56:45;;;;;;;5.70;1.85;;;;;;;13.51;60.76;101415.03;5087879;28;20031;-30
2022/10/11 00:59:14;;;;;;;5.00;1.67;;;;;;;13.50;61.00;101417.69;5092114;28;20363;-29
2022/10/11 01:01:40;;;;;;;5.25;1.77;;;;;;;13.45;61.00;101431.84;5104267;28;20039;-30
2022/10/11 01:04:05;;;;;;;5.57;1.83;;;;;;;13.43;60.90;101433.59;5106908;28;20028;-29
2022/10/11 01:06:31;;;;;;;4.32;1.80;;;;;;;13.41;61.15;101432.72;5097391;28;20470;-29
2022/10/11 01:08:57;;;;;;;4.38;1.45;;;;;;;13.37;61.05;101435.44;5079309;28;20024;-30
2022/10/11 01:11:24;;;;;;;5.30;1.63;;;;;;;13.33;61.02;101429.28;5108230;28;20051;-30
2022/10/11 01:14:10;;;;;;;5.22;1.63;;;;;;;13.31;60.83;101433.72;5095858;28;20032;-30
2022/10/11 01:16:44;;;;;;;6.20;1.88;;;;;;;13.26;61.01;101436.41;5100697;28;20405;-30
2022/10/11 01:19:50;;;;;;;6.70;1.75;;;;;;;13.24;60.78;101439.97;5105187;28;20019;-30
2022/10/11 01:22:30;;;;;;;4.60;1.50;;;;;;;13.19;60.90;101448.81;5088942;28;20106;-30
2022/10/11 01:25:15;;;;;;;6.50;1.70;;;;;;;13.16;61.05;101453.25;5108604;28;20079;-30
2022/10/11 01:27:58;;;;;;;6.38;1.40;;;;;;;13.12;60.90;101455.06;5099963;28;20529;-30
2022/10/11 01:30:29;;;;;;;4.82;1.48;;;;;;;13.08;61.09;101461.25;5105086;28;20077;-30
2022/10/11 01:33:06;;;;;;;4.82;1.75;;;;;;;13.06;61.03;101463.03;5090124;28;20027;-30
2022/10/11 01:35:47;;;;;;;3.72;1.40;;;;;;;13.03;61.40;101469.22;5081608;28;20398;-29
2022/10/11 01:38:16;;;;;;;4.82;1.70;;;;;;;12.99;61.37;101471.91;5094186;28;20467;-30
2022/10/11 01:40:52;;;;;;;4.15;1.40;;;;;;;12.98;61.41;101480.75;5090723;28;20118;-30
2022/10/11 01:43:18;;;;;;;5.95;1.63;;;;;;;12.92;61.30;101465.78;5111666;28;20032;-30
2022/10/11 01:45:44;;;;;;;6.32;1.80;;;;;;;12.90;61.68;101472.88;5105378;28;20443;-30
2022/10/11 01:48:12;;;;;;;4.65;1.65;;;;;;;12.86;61.83;101474.63;5099732;28;20027;-30
2022/10/11 01:50:39;;;;;;;5.00;1.40;;;;;;;12.83;61.54;101469.34;5111013;28;20027;-30
2022/10/11 01:53:30;;;;;;;5.38;1.60;;;;;;;12.79;61.76;101483.50;5103500;28;20032;-30
2022/10/11 01:56:22;;;;;;;7.03;1.67;;;;;;;12.76;61.50;101486.16;5073690;28;20482;-30
2022/10/11 01:59:01;;;;;;;6.40;2.00;;;;;;;12.73;61.67;101491.47;5068748;28;20043;-30
2022/10/11 02:01:48;;;;;;;5.30;1.52;;;;;;;12.69;61.56;101486.19;5095435;28;20042;-29
2022/10/11 02:04:35;;;;;;;4.78;1.90;;;;;;;12.65;61.44;101492.41;5084319;28;20139;-29
2022/10/11 02:07:09;;;;;;;6.72;2.08;;;;;;;12.63;61.77;101491.50;5109027;28;20038;-29
2022/10/11 02:09:51;;;;;;;5.30;1.95;;;;;;;12.58;61.42;101488.88;5108882;28;20024;-30
2022/10/11 02:12:22;;;;;;;7.25;2.13;;;;;;;12.56;61.85;101500.34;5100403;28;20413;-29
2022/10/11 02:14:49;;;;;;;5.60;1.85;;;;;;;12.52;61.45;101499.50;5086860;28;20076;-29
2022/10/11 02:17:26;;;;;;;4.25;1.60;;;;;;;12.49;61.95;101502.16;5081856;28;20043;-30
2022/10/11 02:19:55;;;;;;;11.02;2.13;;;;;;;12.47;61.84;101498.63;5086032;28;20019;-30
2022/10/11 02:22:23;;;;;;;5.82;1.70;;;;;;;12.45;61.56;101503.91;5086287;28;20058;-29
2022/10/11 02:24:51;;;;;;;5.25;1.90;;;;;;;12.41;61.59;101499.53;5107237;28;20168;-29
2022/10/11 02:27:21;;;;;;;4.22;1.73;;;;;;;12.39;61.84;101503.06;5081202;28;20031;-30
2022/10/11 02:29:46;;;;;;;;;;;;;;;12.37;61.49;101508.34;5075621;28;20597;-30
2022/10/11 02:32:12;;;;;;;5.30;1.63;;;;;;;12.34;61.31;101511.00;5096763;28;19998;-30
2022/10/11 02:34:43;;;;;;;6.13;1.83;;;;;;;12.32;61.60;101510.16;5093142;28;20406;-30
2022/10/11 02:37:17;;;;;;;7.60;2.55;;;;;;;12.30;61.34;101517.19;5101423;28;20066;-29
2022/10/11 02:39:44;;;;;;;6.00;2.17;;;;;;;12.28;61.53;101524.28;5099682;28;20487;-30
2022/10/11 02:42:17;;;;;;;6.25;2.20;;;;;;;12.25;61.38;101518.97;5088201;28;20371;-30
2022/10/11 02:44:58;;;;;;;4.53;1.63;;;;;;;12.22;61.04;101519.88;5078349;28;20043;-29
2022/10/11 02:47:23;;;;;;;5.72;1.90;;;;;;;12.20;61.08;101524.28;5097062;28;20168;-29
2022/10/11 02:49:49;;;;;;;3.50;1.67;;;;;;;12.16;60.95;101523.41;5092051;28;20114;-30
2022/10/11 02:52:14;;;;;;;3.25;1.70;;;;;;;12.14;60.89;101529.59;5093430;28;20036;-30
2022/10/11 02:54:39;;;;;;;6.82;1.98;;;;;;;12.09;60.74;101529.59;5086342;28;20111;-30
2022/10/11 02:57:05;;;;;;;8.43;1.83;;;;;;;12.05;60.73;101530.44;5111313;28;20030;-29
2022/10/11 02:59:30;;;;;;;7.18;2.20;;;;;;;12.03;60.66;101535.75;5100793;28;20321;-30
2022/10/11 03:01:56;;;;;;;5.53;1.85;;;;;;;12.00;61.00;101542.81;5110375;28;20074;-29
2022/10/11 03:04:21;;;;;;;4.15;1.83;;;;;;;11.96;61.07;101538.38;5105625;28;20032;-29
2022/10/11 03:06:46;;;;;;;5.35;1.92;;;;;;;11.91;60.62;101536.63;5077561;28;20474;-29
2022/10/11 03:09:12;;;;;;;8.63;2.10;;;;;;;11.87;60.65;101544.56;5097873;28;20114;-29
2022/10/11 03:11:37;;;;;;;5.82;2.13;;;;;;;11.86;60.94;101556.00;5090756;28;20108;-29
2022/10/11 03:14:02;;;;;;;5.28;1.83;;;;;;;11.83;60.93;101561.31;5102237;28;20032;-30
2022/10/11 03:16:28;;;;;;;6.22;1.92;;;;;;;11.80;60.90;101562.19;5103921;28;20474;-29
2022/10/11 03:18:53;;;;;;;5.85;2.03;;;;;;;11.76;60.59;101566.59;5108129;28;20041;-29
2022/10/11 03:21:18;;;;;;;4.85;1.92;;;;;;;11.72;60.29;101567.47;5105469;28;20019;-29
2022/10/11 03:23:44;;;;;;;6.65;2.00;;;;;;;11.68;60.29;101579.78;5109143;28;20027;-30
2022/10/11 03:26:09;;;;;;;6.85;1.70;;;;;;;11.64;60.29;101583.31;5110468;28;20032;-30
2022/10/11 03:28:34;;;;;;;5.85;1.83;;;;;;;11.60;60.01;101588.63;5086854;28;20359;-30
2022/10/11 03:31:00;;;;;;;4.85;2.00;;;;;;;11.57;60.07;101589.47;5095713;28;20023;-30
2022/10/11 03:33:25;;;;;;;4.43;1.90;;;;;;;11.51;60.05;101587.69;5101925;28;20078;-29
2022/10/11 03:35:51;;;;;;;5.07;2.08;;;;;;;11.48;59.96;101586.81;5107540;28;20027;-29
2022/10/11 03:38:18;;;;;;;4.78;1.67;;;;;;;11.45;60.04;101592.09;5104416;28;20478;-29
2022/10/11 03:40:44;;;;;;;6.07;2.05;;;;;;;11.41;59.99;101592.09;5084301;28;21167;-29
2022/10/11 03:43:10;;;;;;;5.53;1.80;;;;;;;11.38;59.97;101592.09;5094929;28;20486;-30
2022/10/11 03:45:36;;;;;;;5.57;1.80;;;;;;;11.35;60.01;101600.00;5098581;28;20034;-30
2022/10/11 03:48:01;;;;;;;6.85;2.00;;;;;;;11.28;59.79;101595.59;5099375;28;20032;-30
2022/10/11 03:50:27;;;;;;;4.75;2.13;;;;;;;11.24;59.90;101593.81;5080238;28;20031;-30
2022/10/11 03:52:52;;;;;;;7.32;2.08;;;;;;;11.20;59.88;101592.06;5080338;28;20052;-30
2022/10/11 03:55:18;;;;;;;5.35;1.75;;;;;;;11.18;59.76;101602.59;5074323;28;20024;-29
2022/10/11 03:57:43;;;;;;;5.57;1.80;;;;;;;11.14;59.65;101598.19;5093726;28;20028;-30
2022/10/11 04:00:09;;;;;;;4.60;1.80;;;;;;;11.11;59.46;101595.53;5091691;28;20066;-30
2022/10/11 04:02:34;;;;;;;4.47;1.80;;;;;;;11.07;59.57;101605.19;5101860;28;20381;-30
2022/10/11 04:05:00;;;;;;;6.55;1.88;;;;;;;11.04;59.46;101605.19;5106716;28;20031;-30
2022/10/11 04:07:26;;;;;;;3.85;1.85;;;;;;;11.00;59.43;101616.59;5098549;28;20039;-30
2022/10/11 04:09:51;;;;;;;6.43;2.20;;;;;;;10.95;59.37;101613.97;5105748;28;20024;-30
2022/10/11 04:12:17;;;;;;;5.70;1.85;;;;;;;10.91;59.65;101618.31;5084411;28;20455;-30
2022/10/11 04:14:42;;;;;;;5.32;1.70;;;;;;;10.87;59.42;101621.81;5111190;28;20027;-30
2022/10/11 04:17:08;;;;;;;4.35;1.58;;;;;;;10.83;59.63;101619.16;5104942;28;20024;-29
2022/10/11 04:19:35;;;;;;;4.88;1.90;;;;;;;10.78;59.81;101621.78;5095050;28;20035;-30
2022/10/11 04:22:00;;;;;;;7.30;2.15;;;;;;;10.74;60.00;101620.00;5109882;28;20385;-30
2022/10/11 04:24:26;;;;;;;5.30;1.65;;;;;;;10.73;59.75;101618.22;5103076;28;20500;-30
2022/10/11 04:26:51;;;;;;;5.57;2.00;;;;;;;10.69;59.63;101627.00;5100432;28;20028;-30
2022/10/11 04:29:16;;;;;;;4.93;1.80;;;;;;;10.63;59.62;101626.09;5103481;28;20467;-30
2022/10/11 04:31:42;;;;;;;3.63;1.50;;;;;;;10.60;59.75;101627.84;5108214;28;20119;-29
2022/10/11 04:34:07;;;;;;;3.72;1.58;;;;;;;10.57;59.67;101631.31;5112781;28;20366;-30
2022/10/11 04:36:33;;;;;;;5.68;2.03;;;;;;;10.52;59.44;101636.59;5104114;28;20027;-30
2022/10/11 04:39:00;;;;;;;4.88;1.75;;;;;;;10.49;59.48;101640.94;5092771;28;20020;-30
2022/10/11 04:41:26;;;;;;;5.13;1.70;;;;;;;10.44;59.37;101634.75;5095459;28;20112;-30
2022/10/11 04:43:52;;;;;;;4.10;1.67;;;;;;;10.39;59.49;101638.22;5063150;28;20024;-30
2022/10/11 04:46:17;;;;;;;3.72;1.73;;;;;;;10.35;59.44;101639.09;5101030;28;20039;-30
2022/10/11 04:48:42;;;;;;;3.42;1.60;;;;;;;10.31;59.15;101653.13;5106791;28;20034;-30
2022/10/11 04:51:08;;;;;;;5.25;1.52;;;;;;;10.28;59.53;101658.34;5105136;28;20024;-30
2022/10/11 04:53:33;;;;;;;3.58;1.63;;;;;;;10.23;59.56;101654.78;5109565;28;20425;-30
2022/10/11 04:56:06;;;;;;;3.35;1.55;;;;;;;10.19;59.68;101653.00;5104542;28;20027;-31
2022/10/11 04:58:33;;;;;;;3.72;1.52;;;;;;;10.14;59.63;101661.75;5098761;28;20023;-30
2022/10/11 05:00:59;;;;;;;4.97;1.40;;;;;;;10.11;59.57;101667.00;5105209;28;20047;-30
2022/10/11 05:03:25;;;;;;;3.33;1.65;;;;;;;10.08;59.64;101669.63;5108693;28;20109;-30
2022/10/11 05:05:51;;;;;;;3.80;1.63;;;;;;;10.05;59.53;101666.94;5092249;28;20039;-30
2022/10/11 05:08:17;;;;;;;3.85;1.80;;;;;;;10.01;59.59;101676.56;5101445;28;20491;-30
2022/10/11 05:10:42;;;;;;;6.43;1.83;;;;;;;9.98;59.87;101676.53;5103518;28;20051;-30
2022/10/11 05:13:07;;;;;;;5.70;2.00;;;;;;;9.96;59.62;101680.03;5100263;28;20159;-30
2022/10/11 05:15:33;;;;;;;5.85;2.00;;;;;;;9.93;59.63;101682.63;5102402;28;20019;-30
2022/10/11 05:17:58;;;;;;;5.43;2.25;;;;;;;9.90;59.62;101678.22;5105243;28;20092;-30
2022/10/11 05:20:24;;;;;;;5.88;2.30;;;;;;;9.83;59.68;101685.19;5095618;28;20023;-30
2022/10/11 05:22:49;;;;;;;6.15;2.03;;;;;;;9.78;59.74;101686.91;5092408;28;20023;-30
2022/10/11 05:25:14;;;;;;;4.80;2.13;;;;;;;9.75;59.68;101695.66;5106173;28;20027;-30
2022/10/11 05:27:40;;;;;;;5.32;2.47;;;;;;;9.73;59.72;101694.75;5104505;28;20518;-30
2022/10/11 05:30:06;;;;;;;6.03;2.80;;;;;;;9.70;59.58;101696.47;5091989;28;20034;-29
2022/10/11 05:32:31;;;;;;;6.88;3.08;;;;;;;9.67;59.96;101699.06;5092162;28;20270;-30
2022/10/11 05:34:57;;;;;;;5.90;2.85;;;;;;;9.63;59.66;101701.66;5091791;28;20097;-30
2022/10/11 05:37:22;;;;;;;8.65;3.25;;;;;;;9.60;59.48;101701.63;5095323;28;20084;-30
2022/10/11 05:39:47;;;;;;;5.22;3.20;;;;;;;9.57;59.73;101711.25;5084944;28;21407;-30
2022/10/11 05:42:13;;;;;;;4.75;3.17;;;;;;;9.54;59.62;101713.84;5111503;28;20444;-30
2022/10/11 05:44:38;;;;;;;7.57;3.70;;;;;;;9.51;59.69;101717.34;5112165;28;20490;-30
2022/10/11 05:47:04;;;;;;;6.38;3.45;;;;;;;9.46;59.81;101713.75;5112177;28;20427;-30
2022/10/11 05:49:29;;;;;;;6.32;3.63;;;;;;;9.43;59.91;101721.59;5110126;28;20035;-30
2022/10/11 05:51:54;;;;;;;7.82;3.42;;;;;;;9.40;59.90;101722.44;5109122;28;20061;-30
2022/10/11 05:54:20;;;;;;;8.40;3.35;;;;;;;9.37;60.11;101728.56;5111501;28;20031;-30
2022/10/11 05:56:46;;;;;;;8.00;3.67;;;;;;;9.35;59.94;101727.69;5110919;28;20027;-30
2022/10/11 05:59:11;;;;;;;7.55;3.40;;;;;;;9.33;60.10;101731.13;5112157;28;20030;-30
2022/10/11 06:01:37;;;;;;;8.30;3.65;;;;;;;9.30;59.90;101728.47;5111904;28;20024;-30
2022/10/11 06:04:03;;;;;;;7.75;3.70;;;;;;;9.29;60.11;101731.94;5111653;28;20054;-30
2022/10/11 06:06:29;;;;;;;6.53;3.08;;;;;;;9.24;60.25;101739.81;5102843;28;20030;-30
2022/10/11 06:08:54;;;;;;;7.35;3.28;;;;;;;9.22;60.25;101741.53;5099705;28;20020;-30
2022/10/11 06:11:23;;;;;;;6.63;3.45;;;;;;;9.19;60.30;101736.22;5108504;28;20035;-30
2022/10/11 06:13:48;;;;;;;6.28;3.20;;;;;;;9.17;60.35;101743.22;5092753;28;20034;-30
2022/10/11 06:16:14;;;;;;;4.60;3.05;;;;;;;9.15;60.36;101750.19;5111845;28;20019;-30
2022/10/11 06:18:40;;;;;;;5.05;2.75;;;;;;;9.11;60.49;101755.41;5111834;28;20416;-30
2022/10/11 06:21:05;;;;;;;7.82;3.10;;;;;;;9.09;60.47;101754.53;5105202;28;20035;-30
2022/10/11 06:23:31;;;;;;;6.53;2.72;;;;;;;9.09;60.65;101767.69;5097493;28;20023;-31
2022/10/11 06:26:07;;;;;;;5.38;2.50;;;;;;;9.06;60.79;101762.38;5115408;28;20038;-30
2022/10/11 06:28:33;;;;;;;7.35;2.83;;;;;;;9.05;60.92;101770.22;5096644;28;20016;-30
2022/10/11 06:30:59;;;;;;;4.68;2.83;;;;;;;9.03;60.99;101775.47;5110637;28;20084;-30
2022/10/11 06:33:24;;;;;;;6.05;2.90;;;;;;;9.01;60.90;101764.06;5113500;28;20023;-30
2022/10/11 06:36:02;;;;;;;5.28;2.55;;;;;;;9.02;61.13;101775.44;5114794;28;20062;-30
2022/10/11 06:38:27;;;;;;;5.22;2.33;;;;;;;9.00;61.17;101783.31;5115143;28;20020;-30
2022/10/11 06:40:53;;;;;;;5.38;2.42;;;;;;;8.98;61.34;101780.66;5115461;28;20088;-30
2022/10/11 06:43:18;;;;;;;5.15;2.20;;;;;;;8.98;61.36;101795.56;5113904;28;20038;-30
2022/10/11 06:45:44;;;;;;;5.35;1.85;;;;;;;8.99;61.52;101792.06;5105613;28;20024;-30
2022/10/11 06:48:09;;;;;;;6.28;2.38;;;;;;;8.97;61.49;101789.41;5103400;28;20088;-30
2022/10/11 06:50:36;;;;;;;5.88;2.92;;;;;;;8.99;61.52;101792.06;5107269;28;20039;-30
2022/10/11 06:53:01;;;;;;;5.40;2.35;;;;;;;9.00;61.38;101795.59;5111937;28;20019;-30
2022/10/11 06:55:27;;;;;;;5.22;2.78;;;;;;;8.97;61.66;101799.94;5113687;28;20385;-30
2022/10/11 06:57:52;;;;;;;6.35;2.42;;;;;;;9.01;61.83;101798.25;5115366;28;20035;-30
2022/10/11 07:00:18;;;;;;;4.95;2.00;;;;;;;9.00;61.80;101809.63;5115645;28;20023;-30
2022/10/11 07:02:43;;;;;;;5.38;2.53;;;;;;;9.01;61.80;101803.53;5113623;28;20102;-30
2022/10/11 07:05:09;;;;;;;4.50;2.05;;;;;;;9.03;61.95;101799.16;5112576;28;20027;-30
2022/10/11 07:07:34;;;;;;;8.45;2.70;;;;;;;9.06;62.18;101804.47;5101086;28;20035;-30
2022/10/11 07:10:00;;;;;;;5.53;2.55;;;;;;;9.09;62.63;101804.53;5094856;28;20052;-30
2022/10/11 07:12:25;;;;;;;5.70;2.40;;;;;;;9.09;63.30;101808.88;5099520;28;20526;-30
2022/10/11 07:14:51;;;;;;;5.28;2.25;;;;;;;9.12;63.57;101811.56;5114805;28;20035;-30
2022/10/11 07:17:16;;;;;;;5.95;2.28;;;;;;;9.13;63.52;101815.09;5105063;28;20024;-29
2022/10/11 07:19:41;;;;;;;5.13;2.40;;;;;;;9.15;63.51;101818.63;5100652;28;20028;-30
2022/10/11 07:22:07;;;;;;;4.07;2.15;;;;;;;9.17;63.46;101817.78;5111177;28;20047;-30
2022/10/11 07:24:32;;;;;;;6.00;2.70;;;;;;;9.19;63.49;101817.81;5114278;28;20418;-30
2022/10/11 07:27:02;;;;;;;3.95;2.17;;;;;;;9.21;63.51;101824.00;5114565;28;20024;-30
2022/10/11 07:29:27;;;;;;;5.95;2.47;;;;;;;9.23;63.63;101820.53;5113262;28;20197;-30
2022/10/11 07:31:52;;;;;;;4.75;1.90;;;;;;;9.27;63.35;101828.47;5098458;28;20048;-30
2022/10/11 07:34:19;;;;;;;4.82;2.03;;;;;;;9.31;63.42;101827.66;5112854;28;20047;-30
2022/10/11 07:36:45;;;;;;;4.68;1.92;;;;;;;9.35;63.33;101833.00;5095930;28;20070;-30
2022/10/11 07:39:11;;;;;;;4.40;2.00;;;;;;;9.40;63.06;101829.53;5114237;28;20026;-30
2022/10/11 07:41:37;;;;;;;5.50;2.35;;;;;;;9.45;62.57;101838.38;5111255;28;20024;-30
2022/10/11 07:44:03;;;;;;;6.03;2.20;;;;;;;9.52;63.10;101848.13;5093296;28;20024;-30
2022/10/11 07:46:29;;;;;;;5.47;2.17;;;;;;;9.56;63.20;101836.78;5107955;28;20477;-30
2022/10/11 07:48:55;;;;;;;5.65;2.22;;;;;;;9.61;63.19;101835.09;5110154;28;20030;-30
2022/10/11 07:51:22;;;;;;;8.93;2.58;;;;;;;9.69;63.45;101834.31;5113561;28;20393;-30
2022/10/11 07:53:50;;;;;;;8.70;2.58;;;;;;;9.75;63.27;101837.03;5110862;28;20020;-30
2022/10/11 07:56:17;;;;;;;8.15;2.65;;;;;;;9.82;63.34;101838.88;5114444;28;20020;-30
2022/10/11 07:58:43;;;;;;;6.03;1.92;;;;;;;9.90;62.99;101838.09;5110543;28;20024;-30
2022/10/11 08:01:10;;;;;;;7.82;2.17;;;;;;;9.96;63.47;101835.53;5103790;28;20020;-30
2022/10/11 08:03:35;;;;;;;9.18;2.17;;;;;;;10.04;63.77;101848.81;5110706;28;20101;-31
2022/10/11 08:06:06;;;;;;;5.00;1.80;;;;;;;10.11;63.34;101840.97;5113007;28;20032;-30
2022/10/11 08:08:32;;;;;;;6.40;2.40;;;;;;;10.19;63.15;101842.81;5113548;28;20019;-30
2022/10/11 08:10:58;;;;;;;5.50;2.05;;;;;;;10.25;62.83;101848.16;5113983;28;20020;-30
2022/10/11 08:13:24;;;;;;;9.73;2.17;;;;;;;10.31;62.75;101847.34;5108019;28;20028;-30
2022/10/11 08:15:50;;;;;;;3.97;1.80;;;;;;;10.37;62.80;101853.56;5099657;28;20107;-30
2022/10/11 08:18:16;;;;;;;4.63;1.85;;;;;;;10.46;62.62;101846.66;5075656;28;20458;-29
2022/10/11 08:20:41;;;;;;;4.07;1.83;;;;;;;10.51;62.27;101855.50;5093175;28;20051;-29
2022/10/11 08:23:08;;;;;;;6.97;2.25;;;;;;;10.58;62.50;101857.34;5074756;28;20518;-29
2022/10/11 08:25:38;;;;;;;6.63;2.08;;;;;;;10.67;62.27;101850.38;5111163;28;20103;-29
2022/10/11 08:28:04;;;;;;;4.47;2.00;;;;;;;10.73;62.56;101851.31;5084861;28;20052;-29
2022/10/11 08:30:29;;;;;;;5.63;2.13;;;;;;;10.80;62.43;101860.16;5080549;28;20520;-29
2022/10/11 08:32:55;;;;;;;6.72;1.92;;;;;;;10.85;62.62;101855.84;5100899;28;20062;-29
2022/10/11 08:35:20;;;;;;;5.53;1.77;;;;;;;10.94;62.58;101859.41;5100546;28;20024;-30
2022/10/11 08:37:46;;;;;;;4.85;1.80;;;;;;;11.01;62.53;101862.09;5076555;28;20475;-30
2022/10/11 08:40:15;;;;;;;7.97;1.92;;;;;;;11.08;62.62;101857.78;5092890;28;20066;-29
2022/10/11 08:42:45;;;;;;;5.97;1.77;;;;;;;11.15;62.66;101867.53;5092599;28;20038;-29
2022/10/11 08:45:23;;;;;;;6.28;1.73;;;;;;;11.23;62.44;101874.59;5101815;28;20023;-29
2022/10/11 08:47:49;;;;;;;3.47;1.67;;;;;;;11.32;63.25;101872.03;5092465;28;20047;-30
2022/10/11 08:50:18;;;;;;;4.93;1.60;;;;;;;11.37;62.73;101875.56;5079465;28;20466;-30
2022/10/11 08:52:54;;;;;;;7.60;1.70;;;;;;;11.46;62.54;101863.31;5062039;28;20081;-30
2022/10/11 08:55:32;;;;;;;5.50;1.75;;;;;;;11.49;62.90;101868.59;5095289;28;20494;-30
2022/10/11 08:57:58;;;;;;;6.95;1.85;;;;;;;11.57;62.77;101866.91;5112414;28;20451;-30
2022/10/11 09:00:26;;;;;;;5.82;1.70;;;;;;;11.63;62.59;101866.03;5109127;28;20062;-29
2022/10/11 09:02:56;;;;;;;6.30;1.73;;;;;;;11.68;63.22;101870.47;5105012;28;20371;-30
2022/10/11 09:05:30;;;;;;;7.47;1.40;;;;;;;11.74;63.24;101868.78;5103120;28;20046;-30
2022/10/11 09:08:03;;;;;;;4.90;1.73;;;;;;;11.81;62.79;101876.72;5073483;28;20107;-29
2022/10/11 09:10:58;;;;;;;6.85;1.42;;;;;;;11.85;63.00;101861.78;5074435;28;20012;-30
2022/10/11 09:13:42;;;;;;;5.88;1.52;;;;;;;11.91;62.77;101858.28;5074873;28;20032;-30
2022/10/11 09:16:19;;;;;;;7.25;1.75;;;;;;;11.99;62.80;101858.28;5094629;28;20160;-29
2022/10/11 09:19:00;;;;;;;9.45;1.67;;;;;;;12.09;63.78;101861.88;5094046;28;20076;-30
2022/10/11 09:21:38;;;;;;;5.50;1.38;;;;;;;12.15;63.76;101857.53;5113173;28;20036;-30
2022/10/11 09:24:36;;;;;;;6.18;1.75;;;;;;;12.23;63.79;101864.56;5113000;28;20035;-30
2022/10/11 09:27:11;;;;;;;4.13;1.30;;;;;;;12.31;63.88;101854.91;5089221;28;20129;-30
2022/10/11 09:29:53;;;;;;;4.38;1.25;;;;;;;12.39;63.29;101858.47;5100779;28;20028;-30
2022/10/11 09:32:22;;;;;;;4.93;1.45;;;;;;;12.44;63.61;101851.41;5111689;28;20022;-30
2022/10/11 09:34:58;;;;;;;5.75;1.35;;;;;;;12.53;63.47;101854.94;5094146;28;20035;-30
2022/10/11 09:37:31;;;;;;;8.00;1.77;;;;;;;12.59;63.23;101849.69;5092989;28;20096;-30
2022/10/11 09:40:06;;;;;;;5.15;1.40;;;;;;;12.67;63.37;101853.22;5094400;28;20026;-29
2022/10/11 09:42:31;;;;;;;12.10;1.60;;;;;;;12.78;63.61;101865.56;5110703;28;20032;-30
2022/10/11 09:44:58;;;;;;;5.85;1.73;;;;;;;12.86;63.60;101858.50;5103150;28;20110;-30
2022/10/11 09:47:29;;;;;;;5.55;1.10;;;;;;;12.98;63.95;101860.28;5098624;28;20023;-30
2022/10/11 09:50:02;;;;;;;8.40;1.45;;;;;;;13.05;63.45;101855.88;5110258;28;20055;-30
2022/10/11 09:52:28;;;;;;;8.00;1.60;;;;;;;13.09;63.63;101855.88;5111815;28;20077;-29
2022/10/11 09:54:59;;;;;;;6.55;1.40;;;;;;;13.20;63.69;101852.31;5111233;28;20088;-29
2022/10/11 09:57:30;;;;;;;6.53;1.33;;;;;;;13.28;63.20;101855.88;5104199;28;20088;-30
2022/10/11 10:00:19;;;;;;;6.90;1.45;;;;;;;13.38;63.30;101855.84;5104743;28;20077;-29
2022/10/11 10:02:47;;;;;;;6.28;1.30;;;;;;;13.43;63.21;101854.94;5073358;28;20036;-30
2022/10/11 10:05:31;;;;;;;7.95;1.55;;;;;;;13.52;63.54;101850.53;5090816;28;20107;-30
2022/10/11 10:08:08;;;;;;;6.22;1.65;;;;;;;13.62;62.75;101856.69;5091779;28;20024;-29
2022/10/11 10:10:44;;;;;;;5.50;1.27;;;;;;;13.68;62.52;101861.97;5091437;28;20023;-30
2022/10/11 10:13:22;;;;;;;5.93;1.50;;;;;;;13.77;62.41;101850.47;5089052;28;20528;-30
2022/10/11 10:15:50;;;;;;;5.82;1.33;;;;;;;13.85;62.70;101848.66;5104285;28;20031;-30
2022/10/11 10:18:21;;;;;;;5.80;1.13;;;;;;;13.97;62.46;101853.91;5092120;28;20023;-30
2022/10/11 10:20:51;;;;;;;6.32;1.52;;;;;;;14.05;62.61;101848.59;5111738;28;20394;-30
2022/10/11 10:23:25;;;;;;;5.95;1.13;;;;;;;14.15;61.89;101854.72;5111816;28;20023;-29
2022/10/11 10:25:53;;;;;;;7.65;1.40;;;;;;;14.21;61.77;101862.63;5076094;28;20393;-29
2022/10/11 10:28:26;;;;;;;7.22;1.17;;;;;;;14.32;61.70;101849.31;5100628;28;20036;-30
2022/10/11 10:30:56;;;;;;;6.65;1.25;;;;;;;14.41;61.30;101856.34;5104497;28;20027;-30
2022/10/11 10:33:24;;;;;;;3.90;1.20;;;;;;;14.50;61.68;101852.72;5091297;28;20027;-30
2022/10/11 10:35:57;;;;;;;9.32;1.40;;;;;;;14.61;61.36;101860.66;5103050;28;20131;-30
2022/10/11 10:38:32;;;;;;;8.10;1.25;;;;;;;14.70;61.50;101857.91;5111783;28;20020;-29
2022/10/11 10:41:00;;;;;;;6.38;1.50;;;;;;;14.82;61.25;101856.09;5095884;28;20024;-29
2022/10/11 10:43:33;;;;;;;6.03;1.70;;;;;;;14.88;60.75;101851.59;5091834;28;20030;-29
2022/10/11 10:46:34;;;;;;;5.40;1.70;;;;;;;14.95;60.56;101859.53;5089809;28;20103;-30
2022/10/11 10:49:11;;;;;;;5.47;1.00;;;;;;;15.00;60.46;101855.94;5040925;28;20036;-29
2022/10/11 10:52:04;;;;;;;7.38;1.40;;;;;;;15.13;60.12;101861.13;5111507;28;20027;-30
2022/10/11 10:54:51;;;;;;;6.32;1.35;;;;;;;15.21;60.20;101845.97;5099445;28;20495;-29
2022/10/11 10:57:25;;;;;;;6.03;1.42;;;;;;;15.34;60.04;101853.88;5084823;28;20477;-30
2022/10/11 11:00:15;;;;;;;4.03;1.20;;;;;;;15.39;60.07;101849.38;5111234;28;20027;-29
2022/10/11 11:02:51;;;;;;;7.18;1.77;;;;;;;15.48;60.06;101838.63;5097925;28;20027;-30
2022/10/11 11:05:44;;;;;;;6.00;1.48;;;;;;;15.61;60.03;101842.03;5092581;28;20484;-30
2022/10/11 11:08:37;;;;;;;9.45;1.48;;;;;;;15.64;58.90;101844.66;5073299;28;20094;-30
2022/10/11 11:11:27;;;;;;;5.28;1.27;;;;;;;15.67;58.74;101849.06;5088036;28;20024;-30
2022/10/11 11:14:26;;;;;;;6.30;1.40;;;;;;;15.76;58.71;101845.41;5091992;28;20016;-30
2022/10/11 11:17:17;;;;;;;5.28;1.65;;;;;;;15.83;58.52;101846.19;5094665;28;20028;-30
2022/10/11 11:19:46;;;;;;;8.02;1.30;;;;;;;15.83;57.97;101846.19;5086486;28;20028;-30
2022/10/11 11:22:32;;;;;;;6.97;1.48;;;;;;;15.87;58.01;101845.28;5093650;28;20058;-30
2022/10/11 11:25:18;;;;;;;4.50;1.10;;;;;;;15.90;57.84;101845.22;5094074;28;20032;-30
2022/10/11 11:27:50;;;;;;;6.45;1.52;;;;;;;15.93;57.03;101842.53;5085214;28;20584;-30
2022/10/11 11:30:20;;;;;;;6.28;1.27;;;;;;;15.95;57.56;101846.09;5094960;28;20085;-29
2022/10/11 11:32:58;;;;;;;6.00;1.40;;;;;;;15.96;57.48;101841.66;5097885;28;20031;-30
2022/10/11 11:35:35;;;;;;;5.57;1.33;;;;;;;15.96;56.66;101839.88;5113573;28;20058;-30
2022/10/11 11:38:05;;;;;;;5.45;1.55;;;;;;;15.98;56.50;101831.88;5105415;28;20035;-30
2022/10/11 11:40:38;;;;;;;5.75;1.10;;;;;;;15.99;57.76;101836.28;5089773;28;20427;-30